»·PEaware :: N347CD KAVX-KSAN

N347CD :: KAVX-KSAN

FLIGHT INFORMATION

Flight Status: Arrived
Operator: Privately registered:
United States
More flights under this callsign
Pilot: Daniel C. (3642)
Aircraft: BEECH AIRCRAFT BONANZA
(BE36)
More flights by this aircraft type
Origin: KAVX Catalina
United States
Destination: KSAN San Diego Intl-Lindbergh
United States
More flights between these airports :: More routes between these airports
Route: SXC V208 OCN V23 MZB
File this flight plan on PilotEdge
Remarks: +CW / LYNDI.RNAV y GPS RWY 27
Altitude:
(Current/Filed)
5,000ft
Speed:
(Current/Filed)
165kts
Departed: 10-Jan-20 12:12 PM
Arrived: 10-Jan-20 01:01 PM
Distance/Time
Traveled:
50nm/0:49
Distance/Time
To Go:
Arrived

Flight Plot

Page will automatically refresh every two minutes.


Map Options




Map Legend


Flown Route
Filed Route
Departure Airport
Arrival Airport
Navaid (VOR, NDB)
Fix

Horizontal Profiles

Position Reports

Time Latitude Longitude Heading Altitude Ground
Speed
10-Jan-20 12:06 33.403290 -118.415941 43 1606ft 0kts
10-Jan-20 12:07 33.403290 -118.415941 43 1606ft 0kts
10-Jan-20 12:08 33.403290 -118.415941 43 1606ft 0kts
10-Jan-20 12:09 33.403400 -118.415585 61 1606ft 9kts
10-Jan-20 12:10 33.406687 -118.412210 54 1605ft 20kts
10-Jan-20 12:11 33.407172 -118.411403 41 1605ft 0kts
10-Jan-20 12:12 33.402950 -118.419374 236 1660ft 91kts
10-Jan-20 12:13 33.382953 -118.429198 166 2820ft 89kts
10-Jan-20 12:14 33.370445 -118.404540 89 3876ft 99kts
10-Jan-20 12:15 33.368092 -118.370100 97 4737ft 122kts
10-Jan-20 12:16 33.362172 -118.321173 98 4729ft 160kts
10-Jan-20 12:17 33.355239 -118.267772 98 4727ft 163kts
10-Jan-20 12:18 33.348156 -118.213945 98 4727ft 164kts
10-Jan-20 12:19 33.341048 -118.160013 98 4727ft 164kts
10-Jan-20 12:20 33.333872 -118.105715 98 4727ft 166kts
10-Jan-20 12:21 33.326633 -118.051128 98 4727ft 166kts
10-Jan-20 12:22 33.319383 -117.996642 98 4727ft 166kts
10-Jan-20 12:23 33.313059 -117.949265 98 4727ft 166kts
10-Jan-20 12:24 33.306835 -117.902781 98 4727ft 166kts
10-Jan-20 12:25 33.299531 -117.848402 99 4727ft 166kts
10-Jan-20 12:26 33.292311 -117.794828 99 4727ft 166kts
10-Jan-20 12:27 33.284921 -117.740399 99 4727ft 166kts
10-Jan-20 12:28 33.277493 -117.686037 99 4727ft 166kts
10-Jan-20 12:28 33.271289 -117.640495 99 4727ft 166kts
10-Jan-20 12:30 33.262637 -117.577164 99 4727ft 166kts
10-Jan-20 12:31 33.255169 -117.522699 99 4719ft 166kts
10-Jan-20 12:31 33.248938 -117.477386 99 4718ft 166kts
10-Jan-20 12:32 33.239404 -117.423723 129 4716ft 165kts
10-Jan-20 12:33 33.209197 -117.382672 131 4718ft 166kts
10-Jan-20 12:34 33.178799 -117.341455 131 4718ft 166kts
10-Jan-20 12:35 33.148320 -117.300121 131 4718ft 166kts
10-Jan-20 12:36 33.117885 -117.258840 131 4718ft 165kts
10-Jan-20 12:37 33.087381 -117.217459 131 4718ft 165kts
10-Jan-20 12:38 33.056998 -117.176235 131 4718ft 165kts
10-Jan-20 12:39 33.026631 -117.135027 131 4718ft 165kts
10-Jan-20 12:40 32.996122 -117.093618 131 4718ft 165kts
10-Jan-20 12:41 32.965733 -117.052364 131 4718ft 165kts
10-Jan-20 12:42 32.935448 -117.011244 131 4718ft 165kts
10-Jan-20 12:43 32.905043 -116.969952 131 4718ft 165kts
10-Jan-20 12:44 32.874720 -116.928767 131 4718ft 165kts
10-Jan-20 12:45 32.846019 -116.889736 131 4714ft 145kts
10-Jan-20 12:46 32.820667 -116.855259 131 4716ft 134kts
10-Jan-20 12:47 32.796491 -116.822398 131 4717ft 131kts
10-Jan-20 12:48 32.768684 -116.820300 222 4716ft 119kts
10-Jan-20 12:49 32.740118 -116.843960 211 4721ft 133kts
10-Jan-20 12:50 32.707875 -116.866422 210 4718ft 134kts
10-Jan-20 12:51 32.683334 -116.896618 250 4691ft 136kts
10-Jan-20 12:52 32.672339 -116.934156 262 3903ft 102kts
10-Jan-20 12:53 32.679035 -116.965603 286 3329ft 103kts
10-Jan-20 12:54 32.688218 -117.003251 286 3141ft 131kts
10-Jan-20 12:55 32.697819 -117.042722 286 2699ft 112kts
10-Jan-20 12:56 32.706068 -117.076618 286 2072ft 105kts
10-Jan-20 12:57 32.714503 -117.111174 286 1236ft 109kts
10-Jan-20 12:58 32.722434 -117.142790 285 813ft 94kts
10-Jan-20 12:59 32.729152 -117.171498 287 237ft 88kts
10-Jan-20 13:00 32.733878 -117.188096 17 21ft 7kts
10-Jan-20 13:01 32.734842 -117.187497 287 21ft 0kts
10-Jan-20 13:02 32.734842 -117.187497 287 21ft 0kts
10-Jan-20 13:03 32.734842 -117.187497 287 21ft 0kts
10-Jan-20 13:12 33.896777 -117.606202 267 537ft 0kts
10-Jan-20 13:13 33.896777 -117.606207 267 537ft 0kts
10-Jan-20 13:14 33.896777 -117.606207 267 537ft 0kts

Navigation Log

Ident Type
Flight plan parsing failed, navigation log unavailable